Hovedside
METAR-TAF:

METAR-TAF

Lufthavner :

Djerba, Tunisia

breddegrad: 33-52N, lengdegrad: 010-46E, høyde over havet: 3 m

Gjeldene værobservasjon

Denne rapporten ble laget for 34 minutter siden, klokken 09:30 UTC
Vind 15 kt fra Vest
Temperatur 15°C
Luftfuktighet 55%
Trykk 1012 hPa
Sikt 10 km eller mer
ingen skyer under 1500 m og ingen bygeskyer

METAR: DTTJ 130930Z 26015KT CAVOK 15/06 Q1012 NOSIG

Tid: 11:04 (10:04 UTC)

Varsel

Denne rapporten ble laget for 5 timer og 4 minutter siden, klokken 05:00 UTC
Varsel gyldig fra 13. klokken 06 UTC til 14. klokken 06 UTC
Vind 14 kt fra Vest
Sikt 10 km eller mer
Få skyer i en høyde av 2600 ft
Blir
fra 13. klokken 08 UTC til 13. klokken 10 UTC
Vind 21 kt fra Vest
Sannsynlighet 30% :
Midlertidig
fra 13. klokken 12 UTC til 13. klokken 19 UTC
Sikt: 3000 m
sand

TAF: DTTJ 130500Z 1306/1406 27014KT 9999 FEW026 BECMG 1308/1310 27021KT PROB30 TEMPO 1312/1319 3000 SA

Værobservasjoner og værvarsel for over 4000 flyplasser (METAR- og TAF-rapporter).

Tilgjengelige stasjoner er representert av de røde og gule prikkene på kartet.

Hold musepekeren over prikken for å se navnet på stasjonen.

Klikk så for å se værobservasjoner og -varsler.

For å forandre kartet kan du klikke på den grønne knappen med svart kryss for å zoome inn, på den grønne knappen med strek for å zoome ut, eller på de grønne pilene for å se tilstøtende kart.


METAR-TAF: